Wetterdaten: Oktober 2011
Datum Temp Feuchte Luftdruck Regen Wind Richtung Sonnenschein UV Solar Windben
01.10.2011 14,7 C 81 % 1026,1 hPa 0,0 l/m 0,4 km/h O 9,08 h 1,9 UV-I 313 W/m 1,6 km/h
02.10.2011 14,7 C 83 % 1024,1 hPa 0,0 l/m 0,1 km/h W-NW 9,08 h 1,9 UV-I 306 W/m 0,8 km/h
03.10.2011 15,6 C 79 % 1020,5 hPa 0,2 l/m 0,5 km/h S-SW 6,17 h 1,7 UV-I 263 W/m 2,4 km/h
04.10.2011 14,5 C 88 % 1018,8 hPa 0,0 l/m 3,4 km/h S-SW 2,75 h 1,1 UV-I 124 W/m 14,5 km/h
05.10.2011 15,0 C 87 % 1017,5 hPa 0,8 l/m 3,4 km/h S-SW 0,08 h 1,1 UV-I 89 W/m 16,5 km/h
06.10.2011 11,4 C 85 % 1006,6 hPa 8,4 l/m 9,7 km/h S 0,00 h 0,8 UV-I 65 W/m 18,1 km/h
07.10.2011 8,2 C 93 % 1009,2 hPa 10,0 l/m 5,2 km/h S-SW 0,58 h 1,0 UV-I 93 W/m 22,5 km/h
08.10.2011 4,3 C 95 % 1014,0 hPa 15,8 l/m 5,3 km/h NW 1,58 h 1,0 UV-I 116 W/m 11,3 km/h
09.10.2011 7,5 C 90 % 1018,5 hPa 4,4 l/m 7,6 km/h S 5,42 h 1,7 UV-I 239 W/m 16,9 km/h
10.10.2011 14,3 C 96 % 1012,8 hPa 9,0 l/m 8,5 km/h SW 0,00 h 0,8 UV-I 34 W/m 27,4 km/h
11.10.2011 12,4 C 97 % 1013,8 hPa 27,8 l/m 12,9 km/h SW 0,00 h 0,5 UV-I 31 W/m 34,6 km/h
12.10.2011 8,5 C 97 % 1019,5 hPa 13,6 l/m 0,4 km/h SW 0,00 h 0,9 UV-I 86 W/m 4,8 km/h
13.10.2011 5,9 C 94 % 1029,8 hPa 0,0 l/m 0,0 km/h NW 2,17 h 1,3 UV-I 173 W/m 0,4 km/h
14.10.2011 5,1 C 90 % 1034,2 hPa 0,2 l/m 0,1 km/h SO 8,17 h 1,5 UV-I 266 W/m 2,0 km/h
15.10.2011 6,1 C 78 % 1030,3 hPa 0,0 l/m 4,1 km/h SO 8,08 h 1,5 UV-I 273 W/m 10,9 km/h
16.10.2011 6,6 C 81 % 1025,1 hPa 0,0 l/m 2,7 km/h S-SO 8,00 h 1,5 UV-I 268 W/m 7,6 km/h
17.10.2011 6,4 C 90 % 1020,3 hPa 0,0 l/m 5,0 km/h S 2,83 h 1,0 UV-I 152 W/m 10,0 km/h
18.10.2011 6,2 C 93 % 1009,8 hPa 3,0 l/m 3,4 km/h S 0,83 h 0,7 UV-I 64 W/m 8,4 km/h
19.10.2011 6,6 C 88 % 1014,8 hPa 0,6 l/m 3,6 km/h S 2,33 h 1,0 UV-I 156 W/m 10,5 km/h
20.10.2011 5,8 C 88 % 1024,4 hPa 0,4 l/m 1,1 km/h W 0,92 h 0,8 UV-I 119 W/m 7,3 km/h
21.10.2011 3,5 C 85 % 1027,7 hPa 0,2 l/m 0,3 km/h S-SW 5,67 h 1,1 UV-I 209 W/m 2,8 km/h
22.10.2011 5,0 C 76 % 1022,9 hPa 0,0 l/m 10,1 km/h S-SO 7,75 h 1,2 UV-I 245 W/m 20,9 km/h
23.10.2011 6,3 C 76 % 1018,1 hPa 0,0 l/m 11,0 km/h S-SO 7,50 h 1,2 UV-I 239 W/m 20,1 km/h
24.10.2011 8,5 C 79 % 1011,0 hPa 0,0 l/m 10,5 km/h SO 6,92 h 1,1 UV-I 228 W/m 28,6 km/h
25.10.2011 8,4 C 82 % 1006,4 hPa 0,0 l/m 10,5 km/h SO 5,00 h 1,1 UV-I 175 W/m 29,3 km/h
26.10.2011 6,9 C 85 % 1014,1 hPa 0,0 l/m 1,7 km/h S-SO 5,00 h 1,1 UV-I 201 W/m 6,4 km/h
27.10.2011 9,1 C 88 % 1016,7 hPa 0,2 l/m 18,6 km/h S-SO 6,42 h 1,1 UV-I 202 W/m 28,1 km/h
28.10.2011 9,6 C 89 % 1024,0 hPa 0,0 l/m 0,6 km/h S 5,08 h 1,0 UV-I 182 W/m 3,2 km/h
29.10.2011 11,0 C 89 % 1023,7 hPa 0,2 l/m 2,3 km/h S-SO 2,67 h 1,0 UV-I 124 W/m 4,0 km/h
30.10.2011 11,6 C 94 % 1021,8 hPa 0,0 l/m 0,5 km/h S-SW 1,67 h 1,0 UV-I 120 W/m 2,8 km/h
31.10.2011 10,4 C 95 % 1018,9 hPa 0,4 l/m 5,4 km/h S-SO 0,58 h 0,8 UV-I 96 W/m 10,5 km/h
Min-Datum 21.10.11 01.10.11 06.10.11 17 Tage 01.10.11 - - - - 01.10.11
Min-Zeit 08:30 16:35 14:35 - 00:00 - - - - 00:00
Minimum -0,3 C 41 % 1003,3 hPa - 0,0 km/h - - - - 0,0 km/h
Max-Datum 02.10.11 31.10.11 14.10.11 11.10.11 06.10.11 - 01.10.11 01.10.11 07.10.11 06.10.11
Max-Zeit 15:50 01:10 12:35 20:35 13:00 - 17:30 13:00 14:15 13:00
Maximum 25,2 C 100 % 1035,2 hPa 27,8 l/m 35,1 km/h
S
- 9,00 h 3,1 UV-I 701 W/m 56,3 km/h
S-SW
Durchschnitt 9,0 C 87 % 1019,2 hPa #95,2 l/m 4,8 km/h S-SO #122:20 h 1,1 UV-I 169 W/m 12,4 km/h

Durchschnitt Minimum Temp.5,2 C
Durchschnitt Maximum Temp.13,8 C